sensor_id;sensor_type;location;lat;lon;timestamp;P1;durP1;ratioP1;P2;durP2;ratioP2
6531;SDS011;3299;42.004;24.868;2022-12-04T00:02:20;35.58;;;14.60;;
6531;SDS011;3299;42.004;24.868;2022-12-04T00:04:46;32.75;;;14.57;;
6531;SDS011;3299;42.004;24.868;2022-12-04T00:07:12;32.88;;;15.45;;
6531;SDS011;3299;42.004;24.868;2022-12-04T00:09:38;32.17;;;15.25;;
6531;SDS011;3299;42.004;24.868;2022-12-04T00:12:03;33.20;;;14.40;;
6531;SDS011;3299;42.004;24.868;2022-12-04T00:14:29;32.53;;;15.43;;
6531;SDS011;3299;42.004;24.868;2022-12-04T00:16:54;33.17;;;15.55;;
6531;SDS011;3299;42.004;24.868;2022-12-04T00:19:19;38.42;;;15.70;;
6531;SDS011;3299;42.004;24.868;2022-12-04T00:21:45;48.58;;;16.33;;
6531;SDS011;3299;42.004;24.868;2022-12-04T00:24:11;38.00;;;14.70;;
6531;SDS011;3299;42.004;24.868;2022-12-04T00:26:36;32.78;;;14.55;;
6531;SDS011;3299;42.004;24.868;2022-12-04T00:29:02;31.10;;;14.25;;
6531;SDS011;3299;42.004;24.868;2022-12-04T00:31:28;29.00;;;13.40;;
6531;SDS011;3299;42.004;24.868;2022-12-04T00:33:54;25.25;;;13.40;;
6531;SDS011;3299;42.004;24.868;2022-12-04T00:36:21;27.80;;;13.45;;
6531;SDS011;3299;42.004;24.868;2022-12-04T00:38:48;34.33;;;14.88;;
6531;SDS011;3299;42.004;24.868;2022-12-04T00:41:15;30.10;;;13.55;;
6531;SDS011;3299;42.004;24.868;2022-12-04T00:43:42;28.58;;;13.10;;
6531;SDS011;3299;42.004;24.868;2022-12-04T00:46:07;27.27;;;12.77;;
6531;SDS011;3299;42.004;24.868;2022-12-04T00:48:33;21.73;;;11.50;;
6531;SDS011;3299;42.004;24.868;2022-12-04T00:51:00;22.52;;;11.98;;
6531;SDS011;3299;42.004;24.868;2022-12-04T00:53:27;20.73;;;9.82;;
6531;SDS011;3299;42.004;24.868;2022-12-04T00:55:53;20.65;;;11.40;;
6531;SDS011;3299;42.004;24.868;2022-12-04T00:58:18;27.20;;;12.52;;
6531;SDS011;3299;42.004;24.868;2022-12-04T01:00:43;21.67;;;11.20;;
6531;SDS011;3299;42.004;24.868;2022-12-04T01:03:09;21.27;;;11.25;;
6531;SDS011;3299;42.004;24.868;2022-12-04T01:05:41;20.13;;;10.30;;
6531;SDS011;3299;42.004;24.868;2022-12-04T01:08:10;24.60;;;11.35;;
6531;SDS011;3299;42.004;24.868;2022-12-04T01:10:37;26.15;;;11.90;;
6531;SDS011;3299;42.004;24.868;2022-12-04T01:13:04;28.70;;;12.32;;
6531;SDS011;3299;42.004;24.868;2022-12-04T01:15:29;29.52;;;13.32;;
6531;SDS011;3299;42.004;24.868;2022-12-04T01:17:55;27.77;;;11.93;;
6531;SDS011;3299;42.004;24.868;2022-12-04T01:20:20;24.73;;;12.30;;
6531;SDS011;3299;42.004;24.868;2022-12-04T01:22:46;24.60;;;11.32;;
6531;SDS011;3299;42.004;24.868;2022-12-04T01:25:11;20.63;;;11.32;;
6531;SDS011;3299;42.004;24.868;2022-12-04T01:27:37;25.95;;;10.77;;
6531;SDS011;3299;42.004;24.868;2022-12-04T01:30:02;23.58;;;12.27;;
6531;SDS011;3299;42.004;24.868;2022-12-04T01:32:29;22.42;;;11.18;;
6531;SDS011;3299;42.004;24.868;2022-12-04T01:34:55;9.65;;;6.03;;
6531;SDS011;3299;42.004;24.868;2022-12-04T01:37:20;6.25;;;4.57;;
6531;SDS011;3299;42.004;24.868;2022-12-04T01:39:46;6.07;;;4.25;;
6531;SDS011;3299;42.004;24.868;2022-12-04T01:42:12;4.93;;;3.70;;
6531;SDS011;3299;42.004;24.868;2022-12-04T01:47:41;4.78;;;3.05;;
6531;SDS011;3299;42.004;24.868;2022-12-04T01:50:07;3.53;;;3.22;;
6531;SDS011;3299;42.004;24.868;2022-12-04T01:52:33;3.35;;;3.05;;
6531;SDS011;3299;42.004;24.868;2022-12-04T01:54:58;3.25;;;2.95;;
6531;SDS011;3299;42.004;24.868;2022-12-04T01:57:26;4.75;;;3.83;;
6531;SDS011;3299;42.004;24.868;2022-12-04T01:59:56;4.68;;;3.30;;
6531;SDS011;3299;42.004;24.868;2022-12-04T02:02:30;5.47;;;3.85;;
6531;SDS011;3299;42.004;24.868;2022-12-04T02:04:59;4.07;;;3.13;;
6531;SDS011;3299;42.004;24.868;2022-12-04T02:07:26;4.90;;;3.17;;
6531;SDS011;3299;42.004;24.868;2022-12-04T02:09:52;11.00;;;6.60;;
6531;SDS011;3299;42.004;24.868;2022-12-04T02:28:24;31.02;;;13.73;;
6531;SDS011;3299;42.004;24.868;2022-12-04T02:31:00;31.45;;;13.70;;
6531;SDS011;3299;42.004;24.868;2022-12-04T02:33:30;29.15;;;14.57;;
6531;SDS011;3299;42.004;24.868;2022-12-04T02:36:07;34.33;;;15.35;;
6531;SDS011;3299;42.004;24.868;2022-12-04T02:38:53;39.17;;;15.77;;
6531;SDS011;3299;42.004;24.868;2022-12-04T02:41:45;37.08;;;14.23;;
6531;SDS011;3299;42.004;24.868;2022-12-04T02:44:21;40.13;;;16.00;;
6531;SDS011;3299;42.004;24.868;2022-12-04T02:46:59;37.78;;;15.27;;
6531;SDS011;3299;42.004;24.868;2022-12-04T02:49:36;39.78;;;14.75;;
6531;SDS011;3299;42.004;24.868;2022-12-04T02:52:07;36.30;;;14.30;;
6531;SDS011;3299;42.004;24.868;2022-12-04T02:54:37;37.83;;;15.70;;
6531;SDS011;3299;42.004;24.868;2022-12-04T02:57:06;34.35;;;14.32;;
6531;SDS011;3299;42.004;24.868;2022-12-04T02:59:37;33.92;;;13.98;;
6531;SDS011;3299;42.004;24.868;2022-12-04T03:02:13;30.58;;;13.25;;
6531;SDS011;3299;42.004;24.868;2022-12-04T03:04:44;31.98;;;14.65;;
6531;SDS011;3299;42.004;24.868;2022-12-04T03:07:19;30.02;;;15.20;;
6531;SDS011;3299;42.004;24.868;2022-12-04T03:09:55;32.55;;;15.25;;
6531;SDS011;3299;42.004;24.868;2022-12-04T03:14:56;31.65;;;14.82;;
6531;SDS011;3299;42.004;24.868;2022-12-04T03:17:30;30.55;;;14.82;;
6531;SDS011;3299;42.004;24.868;2022-12-04T03:20:05;27.40;;;13.85;;
6531;SDS011;3299;42.004;24.868;2022-12-04T03:22:35;27.00;;;14.20;;
6531;SDS011;3299;42.004;24.868;2022-12-04T03:25:04;31.20;;;14.98;;
6531;SDS011;3299;42.004;24.868;2022-12-04T03:27:41;34.40;;;15.27;;
6531;SDS011;3299;42.004;24.868;2022-12-04T03:30:17;27.05;;;14.38;;
6531;SDS011;3299;42.004;24.868;2022-12-04T03:32:55;28.33;;;13.35;;
6531;SDS011;3299;42.004;24.868;2022-12-04T03:41:10;27.75;;;13.95;;
6531;SDS011;3299;42.004;24.868;2022-12-04T03:51:50;25.58;;;13.30;;
6531;SDS011;3299;42.004;24.868;2022-12-04T03:54:23;27.25;;;13.70;;
6531;SDS011;3299;42.004;24.868;2022-12-04T03:56:55;27.45;;;12.80;;
6531;SDS011;3299;42.004;24.868;2022-12-04T03:59:28;29.02;;;14.10;;
6531;SDS011;3299;42.004;24.868;2022-12-04T04:01:59;27.75;;;14.70;;
6531;SDS011;3299;42.004;24.868;2022-12-04T04:04:29;30.33;;;14.40;;
6531;SDS011;3299;42.004;24.868;2022-12-04T04:07:00;24.75;;;12.43;;
6531;SDS011;3299;42.004;24.868;2022-12-04T04:09:43;28.50;;;13.32;;
6531;SDS011;3299;42.004;24.868;2022-12-04T04:12:14;26.52;;;13.73;;
6531;SDS011;3299;42.004;24.868;2022-12-04T04:14:45;29.83;;;14.88;;
6531;SDS011;3299;42.004;24.868;2022-12-04T04:17:32;31.98;;;13.80;;
6531;SDS011;3299;42.004;24.868;2022-12-04T04:20:22;30.33;;;13.85;;
6531;SDS011;3299;42.004;24.868;2022-12-04T04:23:10;44.63;;;15.73;;
6531;SDS011;3299;42.004;24.868;2022-12-04T04:25:55;30.95;;;15.02;;
6531;SDS011;3299;42.004;24.868;2022-12-04T04:28:37;35.83;;;15.63;;
6531;SDS011;3299;42.004;24.868;2022-12-04T04:31:21;35.83;;;14.95;;
6531;SDS011;3299;42.004;24.868;2022-12-04T04:41:53;36.97;;;14.93;;
6531;SDS011;3299;42.004;24.868;2022-12-04T04:46:58;38.53;;;16.48;;
6531;SDS011;3299;42.004;24.868;2022-12-04T04:49:28;35.42;;;16.70;;
6531;SDS011;3299;42.004;24.868;2022-12-04T04:51:56;40.10;;;17.67;;
6531;SDS011;3299;42.004;24.868;2022-12-04T04:54:22;36.55;;;17.17;;
6531;SDS011;3299;42.004;24.868;2022-12-04T04:56:49;34.35;;;15.68;;
6531;SDS011;3299;42.004;24.868;2022-12-04T04:59:15;33.72;;;15.50;;
6531;SDS011;3299;42.004;24.868;2022-12-04T05:01:41;31.52;;;15.07;;
6531;SDS011;3299;42.004;24.868;2022-12-04T05:04:09;39.78;;;16.52;;
6531;SDS011;3299;42.004;24.868;2022-12-04T05:06:34;34.00;;;16.42;;
6531;SDS011;3299;42.004;24.868;2022-12-04T05:09:00;34.83;;;15.77;;
6531;SDS011;3299;42.004;24.868;2022-12-04T05:11:26;36.67;;;15.80;;
6531;SDS011;3299;42.004;24.868;2022-12-04T05:13:51;35.00;;;16.17;;
6531;SDS011;3299;42.004;24.868;2022-12-04T05:16:17;32.50;;;17.02;;
6531;SDS011;3299;42.004;24.868;2022-12-04T05:18:43;36.75;;;17.15;;
6531;SDS011;3299;42.004;24.868;2022-12-04T05:21:28;33.42;;;15.90;;
6531;SDS011;3299;42.004;24.868;2022-12-04T05:23:54;39.63;;;18.23;;
6531;SDS011;3299;42.004;24.868;2022-12-04T05:26:20;42.72;;;18.45;;
6531;SDS011;3299;42.004;24.868;2022-12-04T05:28:45;35.42;;;17.10;;
6531;SDS011;3299;42.004;24.868;2022-12-04T05:31:10;37.10;;;15.98;;
6531;SDS011;3299;42.004;24.868;2022-12-04T05:33:36;33.72;;;15.68;;
6531;SDS011;3299;42.004;24.868;2022-12-04T05:36:06;33.97;;;17.98;;
6531;SDS011;3299;42.004;24.868;2022-12-04T05:38:34;34.25;;;17.25;;
6531;SDS011;3299;42.004;24.868;2022-12-04T05:41:01;35.15;;;17.80;;
6531;SDS011;3299;42.004;24.868;2022-12-04T05:43:27;42.65;;;19.15;;
6531;SDS011;3299;42.004;24.868;2022-12-04T05:45:53;41.38;;;17.60;;
6531;SDS011;3299;42.004;24.868;2022-12-04T05:48:19;35.53;;;16.20;;
6531;SDS011;3299;42.004;24.868;2022-12-04T05:50:44;36.05;;;17.50;;
6531;SDS011;3299;42.004;24.868;2022-12-04T05:53:10;44.95;;;18.48;;
6531;SDS011;3299;42.004;24.868;2022-12-04T05:55:36;37.47;;;17.02;;
6531;SDS011;3299;42.004;24.868;2022-12-04T05:58:01;34.42;;;17.35;;
6531;SDS011;3299;42.004;24.868;2022-12-04T06:00:26;34.95;;;15.80;;
6531;SDS011;3299;42.004;24.868;2022-12-04T06:02:52;34.50;;;16.23;;
6531;SDS011;3299;42.004;24.868;2022-12-04T06:05:17;33.40;;;17.52;;
6531;SDS011;3299;42.004;24.868;2022-12-04T06:07:43;45.13;;;18.42;;
6531;SDS011;3299;42.004;24.868;2022-12-04T06:10:08;38.97;;;18.95;;
6531;SDS011;3299;42.004;24.868;2022-12-04T06:12:34;36.17;;;17.05;;
6531;SDS011;3299;42.004;24.868;2022-12-04T06:14:59;33.70;;;18.00;;
6531;SDS011;3299;42.004;24.868;2022-12-04T06:17:25;40.65;;;16.08;;
6531;SDS011;3299;42.004;24.868;2022-12-04T06:19:50;41.45;;;17.75;;
6531;SDS011;3299;42.004;24.868;2022-12-04T06:22:17;50.20;;;19.98;;
6531;SDS011;3299;42.004;24.868;2022-12-04T06:24:43;39.42;;;17.92;;
6531;SDS011;3299;42.004;24.868;2022-12-04T06:27:08;47.13;;;19.63;;
6531;SDS011;3299;42.004;24.868;2022-12-04T06:29:33;84.85;;;30.65;;
6531;SDS011;3299;42.004;24.868;2022-12-04T06:31:59;61.58;;;22.80;;
6531;SDS011;3299;42.004;24.868;2022-12-04T06:34:24;57.90;;;21.08;;
6531;SDS011;3299;42.004;24.868;2022-12-04T06:36:50;53.42;;;20.45;;
6531;SDS011;3299;42.004;24.868;2022-12-04T06:39:15;51.13;;;20.50;;
6531;SDS011;3299;42.004;24.868;2022-12-04T06:41:41;57.13;;;20.75;;
6531;SDS011;3299;42.004;24.868;2022-12-04T06:44:06;55.83;;;19.98;;
6531;SDS011;3299;42.004;24.868;2022-12-04T06:46:33;57.30;;;21.63;;
6531;SDS011;3299;42.004;24.868;2022-12-04T06:48:59;64.57;;;23.17;;
6531;SDS011;3299;42.004;24.868;2022-12-04T06:51:44;65.15;;;20.98;;
6531;SDS011;3299;42.004;24.868;2022-12-04T06:54:09;63.13;;;22.27;;
6531;SDS011;3299;42.004;24.868;2022-12-04T06:56:37;54.92;;;20.25;;
6531;SDS011;3299;42.004;24.868;2022-12-04T06:59:02;55.97;;;20.30;;
6531;SDS011;3299;42.004;24.868;2022-12-04T07:01:29;50.10;;;18.77;;
6531;SDS011;3299;42.004;24.868;2022-12-04T07:03:56;50.13;;;17.77;;
6531;SDS011;3299;42.004;24.868;2022-12-04T07:06:40;55.08;;;20.00;;
6531;SDS011;3299;42.004;24.868;2022-12-04T07:09:07;49.33;;;21.17;;
6531;SDS011;3299;42.004;24.868;2022-12-04T07:11:35;66.65;;;22.95;;
6531;SDS011;3299;42.004;24.868;2022-12-04T07:14:01;70.65;;;25.45;;
6531;SDS011;3299;42.004;24.868;2022-12-04T07:16:28;55.00;;;19.50;;
6531;SDS011;3299;42.004;24.868;2022-12-04T07:18:54;58.83;;;23.05;;
6531;SDS011;3299;42.004;24.868;2022-12-04T07:21:22;47.53;;;21.00;;
6531;SDS011;3299;42.004;24.868;2022-12-04T07:23:50;57.97;;;22.17;;
6531;SDS011;3299;42.004;24.868;2022-12-04T07:26:17;66.05;;;24.90;;
6531;SDS011;3299;42.004;24.868;2022-12-04T07:28:43;50.08;;;21.23;;
6531;SDS011;3299;42.004;24.868;2022-12-04T07:31:21;64.50;;;23.70;;
6531;SDS011;3299;42.004;24.868;2022-12-04T07:33:48;60.55;;;22.27;;
6531;SDS011;3299;42.004;24.868;2022-12-04T07:36:15;58.30;;;21.88;;
6531;SDS011;3299;42.004;24.868;2022-12-04T07:38:43;62.20;;;23.30;;
6531;SDS011;3299;42.004;24.868;2022-12-04T07:41:09;62.95;;;22.55;;
6531;SDS011;3299;42.004;24.868;2022-12-04T07:43:35;52.55;;;21.13;;
6531;SDS011;3299;42.004;24.868;2022-12-04T07:46:04;56.95;;;20.45;;
6531;SDS011;3299;42.004;24.868;2022-12-04T07:48:31;53.28;;;20.38;;
6531;SDS011;3299;42.004;24.868;2022-12-04T07:53:54;57.88;;;22.02;;
6531;SDS011;3299;42.004;24.868;2022-12-04T07:56:23;51.78;;;21.98;;
6531;SDS011;3299;42.004;24.868;2022-12-04T07:58:49;59.22;;;21.10;;
6531;SDS011;3299;42.004;24.868;2022-12-04T08:01:15;54.70;;;22.20;;
6531;SDS011;3299;42.004;24.868;2022-12-04T08:03:43;62.40;;;22.02;;
6531;SDS011;3299;42.004;24.868;2022-12-04T08:06:10;66.22;;;25.85;;
6531;SDS011;3299;42.004;24.868;2022-12-04T08:08:36;66.95;;;21.90;;
6531;SDS011;3299;42.004;24.868;2022-12-04T08:11:08;111.53;;;46.55;;
6531;SDS011;3299;42.004;24.868;2022-12-04T08:13:35;69.47;;;30.67;;
6531;SDS011;3299;42.004;24.868;2022-12-04T08:16:04;54.00;;;20.75;;
6531;SDS011;3299;42.004;24.868;2022-12-04T08:18:31;52.10;;;20.00;;
6531;SDS011;3299;42.004;24.868;2022-12-04T08:21:04;46.13;;;19.25;;
6531;SDS011;3299;42.004;24.868;2022-12-04T08:23:31;55.15;;;22.33;;
6531;SDS011;3299;42.004;24.868;2022-12-04T08:25:58;47.97;;;20.38;;
6531;SDS011;3299;42.004;24.868;2022-12-04T08:28:24;45.90;;;19.67;;
6531;SDS011;3299;42.004;24.868;2022-12-04T08:30:50;52.92;;;24.58;;
6531;SDS011;3299;42.004;24.868;2022-12-04T08:33:15;57.63;;;27.00;;
6531;SDS011;3299;42.004;24.868;2022-12-04T08:35:40;53.72;;;25.35;;
6531;SDS011;3299;42.004;24.868;2022-12-04T08:38:06;52.25;;;20.70;;
6531;SDS011;3299;42.004;24.868;2022-12-04T08:40:32;43.97;;;19.98;;
6531;SDS011;3299;42.004;24.868;2022-12-04T08:42:57;46.22;;;20.27;;
6531;SDS011;3299;42.004;24.868;2022-12-04T08:45:23;57.75;;;24.92;;
6531;SDS011;3299;42.004;24.868;2022-12-04T08:47:48;115.95;;;57.10;;
6531;SDS011;3299;42.004;24.868;2022-12-04T08:50:13;51.78;;;23.90;;
6531;SDS011;3299;42.004;24.868;2022-12-04T08:52:39;51.88;;;23.75;;
6531;SDS011;3299;42.004;24.868;2022-12-04T08:55:05;56.63;;;23.05;;
6531;SDS011;3299;42.004;24.868;2022-12-04T08:57:31;47.72;;;21.27;;
6531;SDS011;3299;42.004;24.868;2022-12-04T08:59:56;54.95;;;25.17;;
6531;SDS011;3299;42.004;24.868;2022-12-04T09:02:22;55.88;;;24.70;;
6531;SDS011;3299;42.004;24.868;2022-12-04T09:04:47;57.90;;;26.23;;
6531;SDS011;3299;42.004;24.868;2022-12-04T09:07:12;47.70;;;22.35;;
6531;SDS011;3299;42.004;24.868;2022-12-04T09:09:38;83.65;;;35.47;;
6531;SDS011;3299;42.004;24.868;2022-12-04T09:12:03;68.68;;;35.13;;
6531;SDS011;3299;42.004;24.868;2022-12-04T09:14:29;83.53;;;38.75;;
6531;SDS011;3299;42.004;24.868;2022-12-04T09:16:54;80.72;;;38.42;;
6531;SDS011;3299;42.004;24.868;2022-12-04T09:19:20;60.35;;;27.67;;
6531;SDS011;3299;42.004;24.868;2022-12-04T09:21:46;53.35;;;26.58;;
6531;SDS011;3299;42.004;24.868;2022-12-04T09:24:11;51.55;;;24.20;;
6531;SDS011;3299;42.004;24.868;2022-12-04T09:26:37;49.38;;;24.08;;
6531;SDS011;3299;42.004;24.868;2022-12-04T09:29:03;60.58;;;30.85;;
6531;SDS011;3299;42.004;24.868;2022-12-04T09:31:30;52.03;;;26.50;;
6531;SDS011;3299;42.004;24.868;2022-12-04T09:33:57;69.07;;;31.77;;
6531;SDS011;3299;42.004;24.868;2022-12-04T09:36:23;56.25;;;26.35;;
6531;SDS011;3299;42.004;24.868;2022-12-04T09:38:49;46.55;;;21.33;;
6531;SDS011;3299;42.004;24.868;2022-12-04T09:41:28;60.90;;;26.88;;
6531;SDS011;3299;42.004;24.868;2022-12-04T09:44:22;80.90;;;36.67;;
6531;SDS011;3299;42.004;24.868;2022-12-04T09:47:00;56.20;;;25.65;;
6531;SDS011;3299;42.004;24.868;2022-12-04T09:49:29;55.38;;;26.13;;
6531;SDS011;3299;42.004;24.868;2022-12-04T09:52:02;98.78;;;41.60;;
6531;SDS011;3299;42.004;24.868;2022-12-04T09:54:36;99.55;;;43.65;;
6531;SDS011;3299;42.004;24.868;2022-12-04T09:57:10;66.93;;;30.92;;
6531;SDS011;3299;42.004;24.868;2022-12-04T09:59:40;62.38;;;30.77;;
6531;SDS011;3299;42.004;24.868;2022-12-04T10:04:54;58.30;;;27.02;;
6531;SDS011;3299;42.004;24.868;2022-12-04T10:10:18;44.42;;;24.02;;
6531;SDS011;3299;42.004;24.868;2022-12-04T10:15:38;42.92;;;23.52;;
6531;SDS011;3299;42.004;24.868;2022-12-04T10:26:53;36.88;;;19.42;;
6531;SDS011;3299;42.004;24.868;2022-12-04T10:29:26;42.08;;;22.38;;
6531;SDS011;3299;42.004;24.868;2022-12-04T10:31:55;34.33;;;18.98;;
6531;SDS011;3299;42.004;24.868;2022-12-04T10:34:30;29.02;;;18.10;;
6531;SDS011;3299;42.004;24.868;2022-12-04T10:37:05;33.35;;;19.75;;
6531;SDS011;3299;42.004;24.868;2022-12-04T10:44:55;37.22;;;21.27;;
6531;SDS011;3299;42.004;24.868;2022-12-04T10:47:21;25.00;;;14.48;;
6531;SDS011;3299;42.004;24.868;2022-12-04T10:49:50;25.02;;;16.15;;
6531;SDS011;3299;42.004;24.868;2022-12-04T10:52:22;89.00;;;48.15;;
6531;SDS011;3299;42.004;24.868;2022-12-04T10:54:49;54.78;;;30.98;;
6531;SDS011;3299;42.004;24.868;2022-12-04T10:57:19;35.67;;;23.25;;
6531;SDS011;3299;42.004;24.868;2022-12-04T10:59:54;25.83;;;16.00;;
6531;SDS011;3299;42.004;24.868;2022-12-04T11:02:22;29.60;;;16.90;;
6531;SDS011;3299;42.004;24.868;2022-12-04T11:04:58;46.63;;;24.83;;
6531;SDS011;3299;42.004;24.868;2022-12-04T11:07:29;23.58;;;15.23;;
6531;SDS011;3299;42.004;24.868;2022-12-04T11:10:05;21.13;;;15.18;;
6531;SDS011;3299;42.004;24.868;2022-12-04T11:12:54;27.92;;;16.55;;
6531;SDS011;3299;42.004;24.868;2022-12-04T11:15:33;22.10;;;13.30;;
6531;SDS011;3299;42.004;24.868;2022-12-04T11:18:07;49.25;;;25.38;;
6531;SDS011;3299;42.004;24.868;2022-12-04T11:20:34;24.25;;;15.55;;
6531;SDS011;3299;42.004;24.868;2022-12-04T11:23:00;85.65;;;41.35;;
6531;SDS011;3299;42.004;24.868;2022-12-04T11:25:27;56.47;;;29.05;;
6531;SDS011;3299;42.004;24.868;2022-12-04T11:28:00;53.38;;;28.25;;
6531;SDS011;3299;42.004;24.868;2022-12-04T11:30:34;41.78;;;20.15;;
6531;SDS011;3299;42.004;24.868;2022-12-04T11:33:02;23.60;;;12.68;;
6531;SDS011;3299;42.004;24.868;2022-12-04T11:35:31;15.27;;;10.18;;
6531;SDS011;3299;42.004;24.868;2022-12-04T11:37:59;17.15;;;11.38;;
6531;SDS011;3299;42.004;24.868;2022-12-04T11:40:28;23.25;;;14.70;;
6531;SDS011;3299;42.004;24.868;2022-12-04T11:43:03;60.03;;;27.33;;
6531;SDS011;3299;42.004;24.868;2022-12-04T11:45:35;121.00;;;42.72;;
6531;SDS011;3299;42.004;24.868;2022-12-04T11:48:02;76.10;;;31.25;;
6531;SDS011;3299;42.004;24.868;2022-12-04T11:50:48;291.35;;;73.60;;
6531;SDS011;3299;42.004;24.868;2022-12-04T11:53:41;117.60;;;36.97;;
6531;SDS011;3299;42.004;24.868;2022-12-04T12:02:40;41.38;;;19.45;;
6531;SDS011;3299;42.004;24.868;2022-12-04T12:07:34;89.63;;;33.47;;
6531;SDS011;3299;42.004;24.868;2022-12-04T12:10:05;68.25;;;28.15;;
6531;SDS011;3299;42.004;24.868;2022-12-04T12:18:09;39.80;;;23.75;;
6531;SDS011;3299;42.004;24.868;2022-12-04T12:26:11;58.22;;;29.20;;
6531;SDS011;3299;42.004;24.868;2022-12-04T12:28:46;43.35;;;22.25;;
6531;SDS011;3299;42.004;24.868;2022-12-04T12:34:39;67.03;;;29.77;;
6531;SDS011;3299;42.004;24.868;2022-12-04T12:39:55;120.18;;;45.45;;
6531;SDS011;3299;42.004;24.868;2022-12-04T12:42:48;106.88;;;44.80;;
6531;SDS011;3299;42.004;24.868;2022-12-04T12:45:25;57.38;;;29.08;;
6531;SDS011;3299;42.004;24.868;2022-12-04T12:47:58;73.90;;;35.00;;
6531;SDS011;3299;42.004;24.868;2022-12-04T12:53:19;51.03;;;28.83;;
6531;SDS011;3299;42.004;24.868;2022-12-04T12:55:51;37.80;;;22.38;;
6531;SDS011;3299;42.004;24.868;2022-12-04T12:58:32;37.58;;;22.15;;
6531;SDS011;3299;42.004;24.868;2022-12-04T13:01:03;60.33;;;30.67;;
6531;SDS011;3299;42.004;24.868;2022-12-04T13:06:21;62.75;;;33.30;;
6531;SDS011;3299;42.004;24.868;2022-12-04T13:09:10;94.15;;;42.88;;
6531;SDS011;3299;42.004;24.868;2022-12-04T13:11:58;70.72;;;37.70;;
6531;SDS011;3299;42.004;24.868;2022-12-04T13:14:27;46.25;;;26.65;;
6531;SDS011;3299;42.004;24.868;2022-12-04T13:17:01;27.45;;;16.45;;
6531;SDS011;3299;42.004;24.868;2022-12-04T13:19:37;31.45;;;20.55;;
6531;SDS011;3299;42.004;24.868;2022-12-04T13:24:40;29.45;;;18.23;;
6531;SDS011;3299;42.004;24.868;2022-12-04T13:30:13;21.05;;;14.40;;
6531;SDS011;3299;42.004;24.868;2022-12-04T13:38:30;39.55;;;22.05;;
6531;SDS011;3299;42.004;24.868;2022-12-04T13:41:10;32.53;;;19.98;;
6531;SDS011;3299;42.004;24.868;2022-12-04T13:46:27;21.52;;;13.50;;
6531;SDS011;3299;42.004;24.868;2022-12-04T13:51:43;20.40;;;12.55;;
6531;SDS011;3299;42.004;24.868;2022-12-04T13:56:37;28.67;;;18.80;;
6531;SDS011;3299;42.004;24.868;2022-12-04T13:59:17;40.60;;;22.88;;
6531;SDS011;3299;42.004;24.868;2022-12-04T14:01:47;46.28;;;28.42;;
6531;SDS011;3299;42.004;24.868;2022-12-04T14:04:25;30.25;;;16.45;;
6531;SDS011;3299;42.004;24.868;2022-12-04T14:09:52;22.13;;;12.70;;
6531;SDS011;3299;42.004;24.868;2022-12-04T14:12:25;23.45;;;15.18;;
6531;SDS011;3299;42.004;24.868;2022-12-04T14:14:55;30.50;;;19.40;;
6531;SDS011;3299;42.004;24.868;2022-12-04T14:20:00;52.47;;;30.92;;
6531;SDS011;3299;42.004;24.868;2022-12-04T14:25:43;32.80;;;17.35;;
6531;SDS011;3299;42.004;24.868;2022-12-04T14:28:11;28.42;;;19.08;;
6531;SDS011;3299;42.004;24.868;2022-12-04T14:31:35;37.45;;;21.63;;
6531;SDS011;3299;42.004;24.868;2022-12-04T14:34:18;31.48;;;17.98;;
6531;SDS011;3299;42.004;24.868;2022-12-04T14:36:44;53.88;;;29.67;;
6531;SDS011;3299;42.004;24.868;2022-12-04T14:41:50;34.17;;;21.02;;
6531;SDS011;3299;42.004;24.868;2022-12-04T14:44:21;28.05;;;14.40;;
6531;SDS011;3299;42.004;24.868;2022-12-04T14:46:51;28.77;;;16.90;;
6531;SDS011;3299;42.004;24.868;2022-12-04T14:49:38;25.00;;;14.13;;
6531;SDS011;3299;42.004;24.868;2022-12-04T14:52:15;18.83;;;8.35;;
6531;SDS011;3299;42.004;24.868;2022-12-04T15:00:50;23.83;;;13.68;;
6531;SDS011;3299;42.004;24.868;2022-12-04T15:03:18;31.10;;;17.35;;
6531;SDS011;3299;42.004;24.868;2022-12-04T15:06:04;41.80;;;17.88;;
6531;SDS011;3299;42.004;24.868;2022-12-04T15:08:32;55.95;;;24.52;;
6531;SDS011;3299;42.004;24.868;2022-12-04T15:10:58;42.13;;;23.48;;
6531;SDS011;3299;42.004;24.868;2022-12-04T15:13:42;23.73;;;12.95;;
6531;SDS011;3299;42.004;24.868;2022-12-04T15:18:34;18.55;;;10.82;;
6531;SDS011;3299;42.004;24.868;2022-12-04T15:20:59;13.93;;;9.38;;
6531;SDS011;3299;42.004;24.868;2022-12-04T15:23:28;21.50;;;14.60;;
6531;SDS011;3299;42.004;24.868;2022-12-04T15:26:01;24.05;;;14.13;;
6531;SDS011;3299;42.004;24.868;2022-12-04T15:31:48;14.70;;;9.25;;
6531;SDS011;3299;42.004;24.868;2022-12-04T15:34:13;21.65;;;14.82;;
6531;SDS011;3299;42.004;24.868;2022-12-04T15:36:53;23.73;;;14.55;;
6531;SDS011;3299;42.004;24.868;2022-12-04T15:39:27;23.45;;;14.07;;
6531;SDS011;3299;42.004;24.868;2022-12-04T15:44:49;25.30;;;13.68;;
6531;SDS011;3299;42.004;24.868;2022-12-04T15:47:24;22.58;;;11.70;;
6531;SDS011;3299;42.004;24.868;2022-12-04T15:49:49;14.77;;;8.02;;
6531;SDS011;3299;42.004;24.868;2022-12-04T15:52:16;11.95;;;8.15;;
6531;SDS011;3299;42.004;24.868;2022-12-04T15:55:05;96.50;;;40.90;;
6531;SDS011;3299;42.004;24.868;2022-12-04T15:57:32;31.48;;;17.13;;
6531;SDS011;3299;42.004;24.868;2022-12-04T16:00:01;15.43;;;10.05;;
6531;SDS011;3299;42.004;24.868;2022-12-04T16:04:54;18.02;;;7.30;;
6531;SDS011;3299;42.004;24.868;2022-12-04T16:07:21;11.88;;;6.75;;
6531;SDS011;3299;42.004;24.868;2022-12-04T16:09:59;18.10;;;7.75;;
6531;SDS011;3299;42.004;24.868;2022-12-04T16:12:26;30.90;;;24.70;;
6531;SDS011;3299;42.004;24.868;2022-12-04T16:14:54;27.08;;;18.77;;
6531;SDS011;3299;42.004;24.868;2022-12-04T16:17:27;20.95;;;14.02;;
6531;SDS011;3299;42.004;24.868;2022-12-04T16:19:55;18.88;;;12.20;;
6531;SDS011;3299;42.004;24.868;2022-12-04T16:22:22;15.60;;;10.70;;
6531;SDS011;3299;42.004;24.868;2022-12-04T16:24:49;11.07;;;7.78;;
6531;SDS011;3299;42.004;24.868;2022-12-04T16:27:16;18.23;;;10.90;;
6531;SDS011;3299;42.004;24.868;2022-12-04T16:29:44;12.73;;;7.93;;
6531;SDS011;3299;42.004;24.868;2022-12-04T16:32:14;15.35;;;10.75;;
6531;SDS011;3299;42.004;24.868;2022-12-04T16:34:41;19.15;;;10.63;;
6531;SDS011;3299;42.004;24.868;2022-12-04T17:12:31;11.68;;;9.07;;
6531;SDS011;3299;42.004;24.868;2022-12-04T17:14:56;7.97;;;7.18;;
6531;SDS011;3299;42.004;24.868;2022-12-04T17:17:22;14.43;;;9.43;;
6531;SDS011;3299;42.004;24.868;2022-12-04T17:19:47;14.98;;;11.52;;
6531;SDS011;3299;42.004;24.868;2022-12-04T17:22:12;20.48;;;12.68;;
6531;SDS011;3299;42.004;24.868;2022-12-04T17:24:38;22.65;;;12.80;;
6531;SDS011;3299;42.004;24.868;2022-12-04T17:27:03;18.08;;;13.60;;
6531;SDS011;3299;42.004;24.868;2022-12-04T17:29:30;15.13;;;12.25;;
6531;SDS011;3299;42.004;24.868;2022-12-04T17:31:55;21.27;;;12.73;;
6531;SDS011;3299;42.004;24.868;2022-12-04T17:34:21;15.05;;;11.15;;
6531;SDS011;3299;42.004;24.868;2022-12-04T17:36:46;15.13;;;11.13;;
6531;SDS011;3299;42.004;24.868;2022-12-04T17:39:11;15.15;;;11.88;;
6531;SDS011;3299;42.004;24.868;2022-12-04T17:41:37;14.85;;;11.10;;
6531;SDS011;3299;42.004;24.868;2022-12-04T17:44:03;19.23;;;14.20;;
6531;SDS011;3299;42.004;24.868;2022-12-04T17:46:28;26.48;;;18.30;;
6531;SDS011;3299;42.004;24.868;2022-12-04T17:48:54;28.15;;;21.45;;
6531;SDS011;3299;42.004;24.868;2022-12-04T17:51:21;25.50;;;19.92;;
6531;SDS011;3299;42.004;24.868;2022-12-04T17:53:48;26.05;;;19.25;;
6531;SDS011;3299;42.004;24.868;2022-12-04T17:56:17;30.88;;;22.92;;
6531;SDS011;3299;42.004;24.868;2022-12-04T17:58:46;29.27;;;20.73;;